Eendracht — PDVN — position and weather

sailwx.info

Track history (hours):
 
Tides and Currents Weather Stations Pressure Air Temp Water Temp Dewpoint Dewpoint Depression Visibility Wind Speed Wind Dir Waves Ship Positions

Eendracht (Netherlands)

Last reported at 2016-May-04 07:32 UTC. Time now 2016-May-04 07:56 UTC.
Position N 51°54' E 004°29'.

Length 59 m; beam 12 m; draft 5 m.

MMSI: 244543000.

Date/timePositionNaut miles runAvg speedWind from/ knotsBaromVisibWave heightAir tempDewpointWater temp
2016-May-04 07:32N 51°54' E 004°29'0 0.0
2016-May-04 06:32N 51°54' E 004°29'0 0.0
2016-May-04 05:32N 51°54' E 004°29'0 0.0
2016-May-04 04:32N 51°54' E 004°29'0 0.0
2016-May-04 03:32N 51°54' E 004°29'0 0.0
2016-May-04 02:32N 51°54' E 004°29'0 0.0
2016-May-04 01:32N 51°54' E 004°29'0 0.0
2016-May-04 00:32N 51°54' E 004°29'0 0.0
2016-May-03 23:32N 51°54' E 004°29'0 0.0
2016-May-03 22:32N 51°54' E 004°29'0 0.0
2016-May-03 21:32N 51°54' E 004°29'0 0.0
2016-May-03 20:32N 51°54' E 004°29'0 0.0
2016-May-03 19:32N 51°54' E 004°29'0 0.0
2016-May-03 18:29N 51°54' E 004°29'0 0.0
2016-May-03 17:32N 51°54' E 004°29'0 0.0
2016-May-03 16:32N 51°54' E 004°29'0 0.0
2016-May-03 15:32N 51°54' E 004°29'0 0.0
2016-May-03 14:32N 51°54' E 004°29'0 0.0
2016-May-03 13:33N 51°54' E 004°29'4 4.4
2016-May-03 12:33N 51°54' E 004°22'4 3.6
2016-May-03 11:33N 51°54' E 004°16'2 1.7
2016-May-03 10:33N 51°54' E 004°19'5 5.2
2016-May-03 09:33N 51°54' E 004°27'1 1.1
2016-May-03 08:32N 51°54' E 004°29'0 0.0
2016-May-03 07:32N 51°54' E 004°29'0 0.0
2016-May-03 06:32N 51°54' E 004°29'0 0.0
2016-May-03 05:32N 51°54' E 004°29'0 0.0
2016-May-03 04:32N 51°54' E 004°29'0 0.0
2016-May-03 03:33N 51°54' E 004°29'0 0.0
2016-May-03 02:32N 51°54' E 004°29'0 0.0
2016-May-03 01:31N 51°54' E 004°29'0 0.0
2016-May-03 00:31N 51°54' E 004°29'0 0.0
2016-May-02 23:31N 51°54' E 004°29'0 0.0
2016-May-02 22:31N 51°54' E 004°29'0 0.0
2016-May-02 21:31N 51°54' E 004°29'0 0.0
2016-May-02 20:28N 51°54' E 004°29'0 0.0
2016-May-02 19:31N 51°54' E 004°29'0 0.0
2016-May-02 18:31N 51°54' E 004°29'0 0.0
2016-May-02 17:31N 51°54' E 004°29'0 0.0
2016-May-02 16:31N 51°54' E 004°29'8 4.0
2016-May-02 14:33N 51°54' E 004°16'6 5.8
2016-May-02 13:34N 51°58' E 004°09'5 5.5
2016-May-02 12:34N 52°01' E 004°01'3 2.6
2016-May-02 11:34N 52°00' E 004°06'5 4.7
2016-May-02 10:34N 52°04' E 004°10'4 3.8
2016-May-02 09:33N 52°06' E 004°16'0 0.0
2016-May-02 08:33N 52°06' E 004°16'0 0.0
2016-May-02 07:33N 52°06' E 004°16'0 0.0
2016-May-02 06:33N 52°06' E 004°16'0 0.0
2016-May-02 05:33N 52°06' E 004°16'0 0.0
2016-May-02 04:33N 52°06' E 004°16'0 0.0
2016-May-02 03:33N 52°06' E 004°16'0 0.0
2016-May-02 02:33N 52°06' E 004°16'0 0.0
2016-May-02 01:33N 52°06' E 004°16'0 0.0
2016-May-02 00:33N 52°06' E 004°16'0 0.0
2016-May-01 23:33N 52°06' E 004°16'0 0.0
2016-May-01 22:33N 52°06' E 004°16'0 0.0
2016-May-01 21:33N 52°06' E 004°16'0 0.0
2016-May-01 20:33N 52°06' E 004°16'0 0.0
2016-May-01 19:33N 52°06' E 004°16'0 0.0
2016-May-01 18:33N 52°06' E 004°16'0 0.0
2016-May-01 17:33N 52°06' E 004°16'0 0.0
2016-May-01 16:33N 52°06' E 004°16'0 0.0
2016-May-01 15:33N 52°06' E 004°16'0 0.0
2016-May-01 14:33N 52°06' E 004°16'0 0.0
2016-May-01 13:33N 52°06' E 004°16'2 1.9
2016-May-01 12:33N 52°08' E 004°14'1 1.1
2016-May-01 11:33N 52°07' E 004°15'1 1.3
2016-May-01 10:31N 52°08' E 004°15'0 0.2
2016-May-01 09:33N 52°08' E 004°16'2 1.8
2016-May-01 08:33N 52°09' E 004°18'3 2.8
2016-May-01 07:33N 52°10' E 004°14'4 3.7
2016-May-01 06:33N 52°11' E 004°08'3 3.0
2016-May-01 05:33N 52°13' E 004°12'4 4.1
2016-May-01 04:34N 52°13' E 004°18'3 3.4
2016-May-01 03:33N 52°10' E 004°18'2 2.4
2016-May-01 02:33N 52°09' E 004°15'4 3.9
2016-May-01 01:33N 52°10' E 004°09'3 2.8
2016-May-01 00:33N 52°13' E 004°12'4 3.9
2016-Apr-30 23:33N 52°13' E 004°18'3 2.9
2016-Apr-30 22:33N 52°10' E 004°19'3 3.1
2016-Apr-30 21:33N 52°09' E 004°15'4 3.7
2016-Apr-30 20:33N 52°10' E 004°10'2 2.3
2016-Apr-30 19:33N 52°13' E 004°09'4 3.7
2016-Apr-30 18:33N 52°13' E 004°15'4 3.9
2016-Apr-30 17:33N 52°13' E 004°22'1 0.9
2016-Apr-30 16:32N 52°14' E 004°23'0 0.1
2016-Apr-30 15:33N 52°14' E 004°23'1 1.3
2016-Apr-30 14:34N 52°15' E 004°24'3 2.5
2016-Apr-30 13:34N 52°17' E 004°26'4 3.9
2016-Apr-30 12:34N 52°21' E 004°28'2 1.8
2016-Apr-30 11:33N 52°22' E 004°30'0 0.0
2016-Apr-30 10:33N 52°22' E 004°30'0 0.1
2016-Apr-30 09:34N 52°22' E 004°30'1 0.9
2016-Apr-30 08:32N 52°23' E 004°30'3 2.8
2016-Apr-30 07:33N 52°26' E 004°31'1 1.2
2016-Apr-30 06:31N 52°27' E 004°32'0 0.1
2016-Apr-30 05:31N 52°27' E 004°32'1 1.1
2016-Apr-30 04:34N 52°28' E 004°32'2 1.9
2016-Apr-30 03:32N 52°28' E 004°35'0 0.0
2016-Apr-30 02:32N 52°28' E 004°35'0 0.0
2016-Apr-30 01:32N 52°28' E 004°35'0 0.0
2016-Apr-30 00:32N 52°28' E 004°35'0 0.0
2016-Apr-29 23:32N 52°28' E 004°35'0 0.0
2016-Apr-29 22:32N 52°28' E 004°35'0 0.0
2016-Apr-29 21:32N 52°28' E 004°35'0 0.0
2016-Apr-29 20:32N 52°28' E 004°35'0 0.0
2016-Apr-29 19:32N 52°28' E 004°35'0 0.0
2016-Apr-29 18:32N 52°28' E 004°35'0 0.0
2016-Apr-29 17:32N 52°28' E 004°35'0 0.0
2016-Apr-29 16:32N 52°28' E 004°35'0 0.0
2016-Apr-29 15:32N 52°28' E 004°35'0 0.0
2016-Apr-29 14:32N 52°28' E 004°35'0 0.0
2016-Apr-29 13:32N 52°28' E 004°35'0 0.0
2016-Apr-29 12:33N 52°28' E 004°35'4 3.7
2016-Apr-29 11:33N 52°27' E 004°29'5 4.7
2016-Apr-29 10:33N 52°23' E 004°25'4 4.3
2016-Apr-29 09:33N 52°19' E 004°21'3 3.2
2016-Apr-29 08:33N 52°21' E 004°16'5 5.3
2016-Apr-29 07:33N 52°21' E 004°07'5 5.3
2016-Apr-29 06:33N 52°22' E 003°59'4 4.3
2016-Apr-29 05:33N 52°24' E 003°52'3 3.3
2016-Apr-29 04:33N 52°21' E 003°55'4 4.2
2016-Apr-29 03:34N 52°17' E 003°58'5 5.0
2016-Apr-29 02:33N 52°14' E 004°04'6 6.0
2016-Apr-29 01:33N 52°10' E 004°13'7 7.3
2016-Apr-29 00:33N 52°11' E 004°01'1 1.3
2016-Apr-28 23:34N 52°11' E 003°59'4 3.8
2016-Apr-28 22:33N 52°11' E 004°05'4 4.4
2016-Apr-28 21:33N 52°13' E 004°12'3 3.2
2016-Apr-28 20:33N 52°13' E 004°17'5 5.1
2016-Apr-28 19:33N 52°14' E 004°09'6 6.4
2016-Apr-28 18:33N 52°17' E 004°00'1 1.1
2016-Apr-28 17:33N 52°17' E 003°59'4 4.4
2016-Apr-28 16:33N 52°13' E 004°03'4 3.9
2016-Apr-28 15:33N 52°10' E 004°07'3 2.9
2016-Apr-28 14:33N 52°08' E 004°10'2 2.3
2016-Apr-28 13:33N 52°08' E 004°14'1 0.5
2016-Apr-28 12:33N 52°07' E 004°15'0 0.3
2016-Apr-28 11:33N 52°07' E 004°15'4 4.3
2016-Apr-28 10:33N 52°04' E 004°10'6 6.0
2016-Apr-28 09:33N 51°59' E 004°03'8 8.2
2016-Apr-28 08:33N 51°55' E 004°14'7 6.9
2016-Apr-28 07:33N 51°54' E 004°26'1 1.1
2016-Apr-28 06:33N 51°54' E 004°27'0 0.0
2016-Apr-28 05:33N 51°54' E 004°27'0 0.0
2016-Apr-28 04:33N 51°54' E 004°27'0 0.0
2016-Apr-28 03:33N 51°54' E 004°27'0 0.0
2016-Apr-28 02:33N 51°54' E 004°27'0 0.0
2016-Apr-28 01:33N 51°54' E 004°27'0 0.0
2016-Apr-28 00:33N 51°54' E 004°27'0 0.0
2016-Apr-27 23:33N 51°54' E 004°27'0 0.0
2016-Apr-27 22:33N 51°54' E 004°27'0 0.0
2016-Apr-27 21:33N 51°54' E 004°27'0 0.0
2016-Apr-27 20:33N 51°54' E 004°27'0 0.0
2016-Apr-27 19:33N 51°54' E 004°27'0 0.0
2016-Apr-27 18:30N 51°54' E 004°27'0 0.0
2016-Apr-27 17:33N 51°54' E 004°27'0 0.0
2016-Apr-27 16:33N 51°54' E 004°27'0 0.0
2016-Apr-27 15:33N 51°54' E 004°27'0 0.0
2016-Apr-27 14:33N 51°54' E 004°27'0 0.0
2016-Apr-27 13:33N 51°54' E 004°27'0 0.0
2016-Apr-27 12:33N 51°54' E 004°27'2 2.0
2016-Apr-27 11:33N 51°54' E 004°24'5 5.5
2016-Apr-27 10:33N 51°55' E 004°15'5 4.8
2016-Apr-27 09:33N 51°58' E 004°09'4 4.4
2016-Apr-27 08:33N 52°00' E 004°04'6 5.9
2016-Apr-27 07:33N 52°05' E 004°11'4 3.6
2016-Apr-27 06:34N 52°06' E 004°16'0 0.0
2016-Apr-27 05:33N 52°06' E 004°16'5 4.7
2016-Apr-27 04:33N 52°08' E 004°09'4 3.8
2016-Apr-27 03:33N 52°12' E 004°11'1 1.1
2016-Apr-27 02:33N 52°11' E 004°09'3 3.0
2016-Apr-27 01:33N 52°11' E 004°05'7 6.7
2016-Apr-27 00:34N 52°16' E 004°11'8 7.5
2016-Apr-26 23:33N 52°22' E 004°19'8 7.8
2016-Apr-26 22:33N 52°29' E 004°25'8 7.6
2016-Apr-26 21:33N 52°36' E 004°30'7 7.2
2016-Apr-26 20:33N 52°43' E 004°33'7 6.5
2016-Apr-26 19:33N 52°49' E 004°35'6 6.3
2016-Apr-26 18:33N 52°55' E 004°39'5 4.8
2016-Apr-26 17:32N 52°59' E 004°44'2 1.5
2016-Apr-26 16:16N 52°59' E 004°47'0 0.2
2016-Apr-26 15:30N 52°59' E 004°48'0 0.2
2016-Apr-26 14:33N 52°59' E 004°47'5 2.0
2016-Apr-26 12:05N 53°03' E 004°52'0 0.0
2016-Apr-26 01:25N 53°03' E 004°52'0 0.0
2016-Apr-25 20:33N 53°03' E 004°53'0 0.0
2016-Apr-25 19:33N 53°03' E 004°53'0 0.0
2016-Apr-25 18:30N 53°03' E 004°53'1 1.3
2016-Apr-25 17:32N 53°02' E 004°52'9 8.2
2016-Apr-25 16:30N 52°56' E 004°41'6 6.4
2016-Apr-25 15:33N 52°51' E 004°35'4 4.0
2016-Apr-25 14:33N 52°48' E 004°31'4 4.2
2016-Apr-25 13:33N 52°45' E 004°25'4 3.6
2016-Apr-25 12:33N 52°49' E 004°25'5 5.2
2016-Apr-25 11:33N 52°50' E 004°17'5 4.9
2016-Apr-25 10:31N 52°49' E 004°09'8 4.0
2016-Apr-25 08:33N 52°42' E 004°02'7 5.9
2016-Apr-25 07:25N 52°37' E 003°54'12 6.4
2016-Apr-25 05:33N 52°28' E 003°42'1018.5
2016-Apr-25 05:00N 52°18' E 003°36'4 0.7 290 / 161012.010.8 1.0 7.0 0.1 9.2
2016-Apr-24 23:17N 52°14' E 003°34'5 6.9
2016-Apr-24 22:32N 52°17' E 003°41'7 7.2
2016-Apr-24 21:33N 52°21' E 003°50'7 7.4
2016-Apr-24 20:33N 52°25' E 004°01'5 5.5
2016-Apr-24 19:33N 52°26' E 004°10'5 5.3
2016-Apr-24 18:33N 52°27' E 004°18'5 4.5
2016-Apr-24 17:33N 52°27' E 004°26'6 5.7
2016-Apr-24 16:33N 52°22' E 004°20'8 7.7
2016-Apr-24 15:33N 52°16' E 004°11'7 7.2
2016-Apr-24 14:33N 52°11' E 004°04'5 4.9
2016-Apr-24 13:33N 52°07' E 003°59'5 5.1
2016-Apr-24 12:33N 52°03' E 003°54'1 1.1
2016-Apr-24 11:33N 52°03' E 003°55'3 3.5
2016-Apr-24 10:33N 52°04' E 004°01'3 2.6
2016-Apr-24 09:33N 52°01' E 004°02'5 5.0
2016-Apr-24 08:33N 51°58' E 004°08'9 8.8
2016-Apr-24 07:33N 51°54' E 004°21'  
Track history (hours):
 
Tides and Currents Weather Stations Pressure Air Temp Water Temp Dewpoint Dewpoint Depression Visibility Wind Speed Wind Dir Waves Ship Positions

Eendracht (Netherlands)

Last reported at 2016-May-04 07:32 UTC. Time now 2016-May-04 07:56 UTC.
Position N 51°54' E 004°29'.

Length 59 m; beam 12 m; draft 5 m.

MMSI: 244543000.

Date/timePositionNaut miles runAvg speedWind from/ knotsBaromVisibWave heightAir tempDewpointWater temp
2016-May-04 07:32N 51°54' E 004°29'0 0.0
2016-May-04 06:32N 51°54' E 004°29'0 0.0
2016-May-04 05:32N 51°54' E 004°29'0 0.0
2016-May-04 04:32N 51°54' E 004°29'0 0.0
2016-May-04 03:32N 51°54' E 004°29'0 0.0
2016-May-04 02:32N 51°54' E 004°29'0 0.0
2016-May-04 01:32N 51°54' E 004°29'0 0.0
2016-May-04 00:32N 51°54' E 004°29'0 0.0
2016-May-03 23:32N 51°54' E 004°29'0 0.0
2016-May-03 22:32N 51°54' E 004°29'0 0.0
2016-May-03 21:32N 51°54' E 004°29'0 0.0
2016-May-03 20:32N 51°54' E 004°29'0 0.0
2016-May-03 19:32N 51°54' E 004°29'0 0.0
2016-May-03 18:29N 51°54' E 004°29'0 0.0
2016-May-03 17:32N 51°54' E 004°29'0 0.0
2016-May-03 16:32N 51°54' E 004°29'0 0.0
2016-May-03 15:32N 51°54' E 004°29'0 0.0
2016-May-03 14:32N 51°54' E 004°29'0 0.0
2016-May-03 13:33N 51°54' E 004°29'4 4.4
2016-May-03 12:33N 51°54' E 004°22'4 3.6
2016-May-03 11:33N 51°54' E 004°16'2 1.7
2016-May-03 10:33N 51°54' E 004°19'5 5.2
2016-May-03 09:33N 51°54' E 004°27'1 1.1
2016-May-03 08:32N 51°54' E 004°29'0 0.0
2016-May-03 07:32N 51°54' E 004°29'0 0.0
2016-May-03 06:32N 51°54' E 004°29'0 0.0
2016-May-03 05:32N 51°54' E 004°29'0 0.0
2016-May-03 04:32N 51°54' E 004°29'0 0.0
2016-May-03 03:33N 51°54' E 004°29'0 0.0
2016-May-03 02:32N 51°54' E 004°29'0 0.0
2016-May-03 01:31N 51°54' E 004°29'0 0.0
2016-May-03 00:31N 51°54' E 004°29'0 0.0
2016-May-02 23:31N 51°54' E 004°29'0 0.0
2016-May-02 22:31N 51°54' E 004°29'0 0.0
2016-May-02 21:31N 51°54' E 004°29'0 0.0
2016-May-02 20:28N 51°54' E 004°29'0 0.0
2016-May-02 19:31N 51°54' E 004°29'0 0.0
2016-May-02 18:31N 51°54' E 004°29'0 0.0
2016-May-02 17:31N 51°54' E 004°29'0 0.0
2016-May-02 16:31N 51°54' E 004°29'8 4.0
2016-May-02 14:33N 51°54' E 004°16'6 5.8
2016-May-02 13:34N 51°58' E 004°09'5 5.5
2016-May-02 12:34N 52°01' E 004°01'3 2.6
2016-May-02 11:34N 52°00' E 004°06'5 4.7
2016-May-02 10:34N 52°04' E 004°10'4 3.8
2016-May-02 09:33N 52°06' E 004°16'0 0.0
2016-May-02 08:33N 52°06' E 004°16'0 0.0
2016-May-02 07:33N 52°06' E 004°16'0 0.0
2016-May-02 06:33N 52°06' E 004°16'0 0.0
2016-May-02 05:33N 52°06' E 004°16'0 0.0
2016-May-02 04:33N 52°06' E 004°16'0 0.0
2016-May-02 03:33N 52°06' E 004°16'0 0.0
2016-May-02 02:33N 52°06' E 004°16'0 0.0
2016-May-02 01:33N 52°06' E 004°16'0 0.0
2016-May-02 00:33N 52°06' E 004°16'0 0.0
2016-May-01 23:33N 52°06' E 004°16'0 0.0
2016-May-01 22:33N 52°06' E 004°16'0 0.0
2016-May-01 21:33N 52°06' E 004°16'0 0.0
2016-May-01 20:33N 52°06' E 004°16'0 0.0
2016-May-01 19:33N 52°06' E 004°16'0 0.0
2016-May-01 18:33N 52°06' E 004°16'0 0.0
2016-May-01 17:33N 52°06' E 004°16'0 0.0
2016-May-01 16:33N 52°06' E 004°16'0 0.0
2016-May-01 15:33N 52°06' E 004°16'0 0.0
2016-May-01 14:33N 52°06' E 004°16'0 0.0
2016-May-01 13:33N 52°06' E 004°16'2 1.9
2016-May-01 12:33N 52°08' E 004°14'1 1.1
2016-May-01 11:33N 52°07' E 004°15'1 1.3
2016-May-01 10:31N 52°08' E 004°15'0 0.2
2016-May-01 09:33N 52°08' E 004°16'2 1.8
2016-May-01 08:33N 52°09' E 004°18'3 2.8
2016-May-01 07:33N 52°10' E 004°14'4 3.7
2016-May-01 06:33N 52°11' E 004°08'3 3.0
2016-May-01 05:33N 52°13' E 004°12'4 4.1
2016-May-01 04:34N 52°13' E 004°18'3 3.4
2016-May-01 03:33N 52°10' E 004°18'2 2.4
2016-May-01 02:33N 52°09' E 004°15'4 3.9
2016-May-01 01:33N 52°10' E 004°09'3 2.8
2016-May-01 00:33N 52°13' E 004°12'4 3.9
2016-Apr-30 23:33N 52°13' E 004°18'3 2.9
2016-Apr-30 22:33N 52°10' E 004°19'3 3.1
2016-Apr-30 21:33N 52°09' E 004°15'4 3.7
2016-Apr-30 20:33N 52°10' E 004°10'2 2.3
2016-Apr-30 19:33N 52°13' E 004°09'4 3.7
2016-Apr-30 18:33N 52°13' E 004°15'4 3.9
2016-Apr-30 17:33N 52°13' E 004°22'1 0.9
2016-Apr-30 16:32N 52°14' E 004°23'0 0.1
2016-Apr-30 15:33N 52°14' E 004°23'1 1.3
2016-Apr-30 14:34N 52°15' E 004°24'3 2.5
2016-Apr-30 13:34N 52°17' E 004°26'4 3.9
2016-Apr-30 12:34N 52°21' E 004°28'2 1.8
2016-Apr-30 11:33N 52°22' E 004°30'0 0.0
2016-Apr-30 10:33N 52°22' E 004°30'0 0.1
2016-Apr-30 09:34N 52°22' E 004°30'1 0.9
2016-Apr-30 08:32N 52°23' E 004°30'3 2.8
2016-Apr-30 07:33N 52°26' E 004°31'1 1.2
2016-Apr-30 06:31N 52°27' E 004°32'0 0.1
2016-Apr-30 05:31N 52°27' E 004°32'1 1.1
2016-Apr-30 04:34N 52°28' E 004°32'2 1.9
2016-Apr-30 03:32N 52°28' E 004°35'0 0.0
2016-Apr-30 02:32N 52°28' E 004°35'0 0.0
2016-Apr-30 01:32N 52°28' E 004°35'0 0.0
2016-Apr-30 00:32N 52°28' E 004°35'0 0.0
2016-Apr-29 23:32N 52°28' E 004°35'0 0.0
2016-Apr-29 22:32N 52°28' E 004°35'0 0.0
2016-Apr-29 21:32N 52°28' E 004°35'0 0.0
2016-Apr-29 20:32N 52°28' E 004°35'0 0.0
2016-Apr-29 19:32N 52°28' E 004°35'0 0.0
2016-Apr-29 18:32N 52°28' E 004°35'0 0.0
2016-Apr-29 17:32N 52°28' E 004°35'0 0.0
2016-Apr-29 16:32N 52°28' E 004°35'0 0.0
2016-Apr-29 15:32N 52°28' E 004°35'0 0.0
2016-Apr-29 14:32N 52°28' E 004°35'0 0.0
2016-Apr-29 13:32N 52°28' E 004°35'0 0.0
2016-Apr-29 12:33N 52°28' E 004°35'4 3.7
2016-Apr-29 11:33N 52°27' E 004°29'5 4.7
2016-Apr-29 10:33N 52°23' E 004°25'4 4.3
2016-Apr-29 09:33N 52°19' E 004°21'3 3.2
2016-Apr-29 08:33N 52°21' E 004°16'5 5.3
2016-Apr-29 07:33N 52°21' E 004°07'5 5.3
2016-Apr-29 06:33N 52°22' E 003°59'4 4.3
2016-Apr-29 05:33N 52°24' E 003°52'3 3.3
2016-Apr-29 04:33N 52°21' E 003°55'4 4.2
2016-Apr-29 03:34N 52°17' E 003°58'5 5.0
2016-Apr-29 02:33N 52°14' E 004°04'6 6.0
2016-Apr-29 01:33N 52°10' E 004°13'7 7.3
2016-Apr-29 00:33N 52°11' E 004°01'1 1.3
2016-Apr-28 23:34N 52°11' E 003°59'4 3.8
2016-Apr-28 22:33N 52°11' E 004°05'4 4.4
2016-Apr-28 21:33N 52°13' E 004°12'3 3.2
2016-Apr-28 20:33N 52°13' E 004°17'5 5.1
2016-Apr-28 19:33N 52°14' E 004°09'6 6.4
2016-Apr-28 18:33N 52°17' E 004°00'1 1.1
2016-Apr-28 17:33N 52°17' E 003°59'4 4.4
2016-Apr-28 16:33N 52°13' E 004°03'4 3.9
2016-Apr-28 15:33N 52°10' E 004°07'3 2.9
2016-Apr-28 14:33N 52°08' E 004°10'2 2.3
2016-Apr-28 13:33N 52°08' E 004°14'1 0.5
2016-Apr-28 12:33N 52°07' E 004°15'0 0.3
2016-Apr-28 11:33N 52°07' E 004°15'4 4.3
2016-Apr-28 10:33N 52°04' E 004°10'6 6.0
2016-Apr-28 09:33N 51°59' E 004°03'8 8.2
2016-Apr-28 08:33N 51°55' E 004°14'7 6.9
2016-Apr-28 07:33N 51°54' E 004°26'1 1.1
2016-Apr-28 06:33N 51°54' E 004°27'0 0.0
2016-Apr-28 05:33N 51°54' E 004°27'0 0.0
2016-Apr-28 04:33N 51°54' E 004°27'0 0.0
2016-Apr-28 03:33N 51°54' E 004°27'0 0.0
2016-Apr-28 02:33N 51°54' E 004°27'0 0.0
2016-Apr-28 01:33N 51°54' E 004°27'0 0.0
2016-Apr-28 00:33N 51°54' E 004°27'0 0.0
2016-Apr-27 23:33N 51°54' E 004°27'0 0.0
2016-Apr-27 22:33N 51°54' E 004°27'0 0.0
2016-Apr-27 21:33N 51°54' E 004°27'0 0.0
2016-Apr-27 20:33N 51°54' E 004°27'0 0.0
2016-Apr-27 19:33N 51°54' E 004°27'0 0.0
2016-Apr-27 18:30N 51°54' E 004°27'0 0.0
2016-Apr-27 17:33N 51°54' E 004°27'0 0.0
2016-Apr-27 16:33N 51°54' E 004°27'0 0.0
2016-Apr-27 15:33N 51°54' E 004°27'0 0.0
2016-Apr-27 14:33N 51°54' E 004°27'0 0.0
2016-Apr-27 13:33N 51°54' E 004°27'0 0.0
2016-Apr-27 12:33N 51°54' E 004°27'2 2.0
2016-Apr-27 11:33N 51°54' E 004°24'5 5.5
2016-Apr-27 10:33N 51°55' E 004°15'5 4.8
2016-Apr-27 09:33N 51°58' E 004°09'4 4.4
2016-Apr-27 08:33N 52°00' E 004°04'6 5.9
2016-Apr-27 07:33N 52°05' E 004°11'4 3.6
2016-Apr-27 06:34N 52°06' E 004°16'0 0.0
2016-Apr-27 05:33N 52°06' E 004°16'5 4.7
2016-Apr-27 04:33N 52°08' E 004°09'4 3.8
2016-Apr-27 03:33N 52°12' E 004°11'1 1.1
2016-Apr-27 02:33N 52°11' E 004°09'3 3.0
2016-Apr-27 01:33N 52°11' E 004°05'7 6.7
2016-Apr-27 00:34N 52°16' E 004°11'8 7.5
2016-Apr-26 23:33N 52°22' E 004°19'8 7.8
2016-Apr-26 22:33N 52°29' E 004°25'8 7.6
2016-Apr-26 21:33N 52°36' E 004°30'7 7.2
2016-Apr-26 20:33N 52°43' E 004°33'7 6.5
2016-Apr-26 19:33N 52°49' E 004°35'6 6.3
2016-Apr-26 18:33N 52°55' E 004°39'5 4.8
2016-Apr-26 17:32N 52°59' E 004°44'2 1.5
2016-Apr-26 16:16N 52°59' E 004°47'0 0.2
2016-Apr-26 15:30N 52°59' E 004°48'0 0.2
2016-Apr-26 14:33N 52°59' E 004°47'5 2.0
2016-Apr-26 12:05N 53°03' E 004°52'0 0.0
2016-Apr-26 01:25N 53°03' E 004°52'0 0.0
2016-Apr-25 20:33N 53°03' E 004°53'0 0.0
2016-Apr-25 19:33N 53°03' E 004°53'0 0.0
2016-Apr-25 18:30N 53°03' E 004°53'1 1.3
2016-Apr-25 17:32N 53°02' E 004°52'9 8.2
2016-Apr-25 16:30N 52°56' E 004°41'6 6.4
2016-Apr-25 15:33N 52°51' E 004°35'4 4.0
2016-Apr-25 14:33N 52°48' E 004°31'4 4.2
2016-Apr-25 13:33N 52°45' E 004°25'4 3.6
2016-Apr-25 12:33N 52°49' E 004°25'5 5.2
2016-Apr-25 11:33N 52°50' E 004°17'5 4.9
2016-Apr-25 10:31N 52°49' E 004°09'8 4.0
2016-Apr-25 08:33N 52°42' E 004°02'7 5.9
2016-Apr-25 07:25N 52°37' E 003°54'12 6.4
2016-Apr-25 05:33N 52°28' E 003°42'1018.5
2016-Apr-25 05:00N 52°18' E 003°36'4 0.7 290 / 161012.010.8 1.0 7.0 0.1 9.2
2016-Apr-24 23:17N 52°14' E 003°34'5 6.9
2016-Apr-24 22:32N 52°17' E 003°41'7 7.2
2016-Apr-24 21:33N 52°21' E 003°50'7 7.4
2016-Apr-24 20:33N 52°25' E 004°01'5 5.5
2016-Apr-24 19:33N 52°26' E 004°10'5 5.3
2016-Apr-24 18:33N 52°27' E 004°18'5 4.5
2016-Apr-24 17:33N 52°27' E 004°26'6 5.7
2016-Apr-24 16:33N 52°22' E 004°20'8 7.7
2016-Apr-24 15:33N 52°16' E 004°11'7 7.2
2016-Apr-24 14:33N 52°11' E 004°04'5 4.9
2016-Apr-24 13:33N 52°07' E 003°59'5 5.1
2016-Apr-24 12:33N 52°03' E 003°54'1 1.1
2016-Apr-24 11:33N 52°03' E 003°55'3 3.5
2016-Apr-24 10:33N 52°04' E 004°01'3 2.6
2016-Apr-24 09:33N 52°01' E 004°02'5 5.0
2016-Apr-24 08:33N 51°58' E 004°08'9 8.8
2016-Apr-24 07:33N 51°54' E 004°21'  

Dump ship's entire track history